Time;durP1;ratioP1;P1;durP2;ratioP2;P2;SDS_P1;SDS_P2;PMS_P1;PMS_P2;Temp;Humidity;BMP_temperature;BMP_pressure;BME280_temperature;BME280_humidity;BME280_pressure;Samples;Min_cycle;Max_cycle;Signal;HPM_P1;HPM_P2
2024/01/25 00:01:11;;;;;;;36.08;6.88;;;7.40;99.90;;;;;;4915927;29;20416;-82
2024/01/25 00:03:37;;;;;;;30.98;5.97;;;7.40;99.90;;;;;;4920259;29;20074;-82
2024/01/25 00:06:04;;;;;;;31.95;6.35;;;7.40;99.90;;;;;;4913340;29;20076;-82
2024/01/25 00:08:30;;;;;;;26.85;5.57;;;7.50;99.90;;;;;;4902131;29;20044;-82
2024/01/25 00:10:55;;;;;;;31.42;6.85;;;7.50;99.90;;;;;;4898921;29;20052;-82
2024/01/25 00:13:21;;;;;;;33.55;5.88;;;7.50;99.90;;;;;;4914851;29;20184;-83
2024/01/25 00:15:46;;;;;;;29.27;5.18;;;7.50;99.90;;;;;;4899021;29;20175;-81
2024/01/25 00:18:12;;;;;;;25.00;5.32;;;7.60;99.90;;;;;;4916047;29;20403;-81
2024/01/25 00:20:38;;;;;;;31.67;6.50;;;7.60;99.90;;;;;;4900011;29;20047;-80
2024/01/25 00:23:03;;;;;;;24.70;5.47;;;7.50;99.90;;;;;;4913621;29;20036;-82
2024/01/25 00:25:29;;;;;;;27.30;5.25;;;7.40;99.90;;;;;;4899457;29;20055;-82
2024/01/25 00:27:55;;;;;;;37.03;6.32;;;7.40;99.90;;;;;;4920388;29;20047;-81
2024/01/25 00:30:20;;;;;;;35.58;5.80;;;7.40;99.90;;;;;;4921099;29;20044;-82
2024/01/25 00:32:46;;;;;;;34.88;6.30;;;7.40;99.90;;;;;;4912754;29;20085;-81
2024/01/25 00:35:13;;;;;;;30.70;5.82;;;7.30;99.90;;;;;;4913045;29;20040;-82
2024/01/25 00:37:40;;;;;;;30.33;6.33;;;7.20;99.90;;;;;;4913668;29;20051;-81
2024/01/25 00:40:08;;;;;;;32.72;5.53;;;7.20;99.90;;;;;;4911848;29;20083;-82
2024/01/25 00:42:42;;;;;;;31.90;6.43;;;7.20;99.90;;;;;;4915639;29;20044;-82
2024/01/25 00:45:08;;;;;;;38.20;5.95;;;7.10;99.90;;;;;;4910984;29;20056;-82
2024/01/25 00:47:34;;;;;;;31.20;6.30;;;7.10;99.90;;;;;;4912782;29;20043;-83
2024/01/25 00:50:00;;;;;;;29.60;5.60;;;7.00;99.90;;;;;;4911357;29;20063;-84
2024/01/25 00:52:26;;;;;;;35.40;6.75;;;7.00;99.90;;;;;;4881859;29;20044;-82
2024/01/25 00:54:52;;;;;;;37.83;6.45;;;6.90;99.90;;;;;;4881412;29;20099;-83
2024/01/25 00:57:18;;;;;;;32.78;6.20;;;6.90;99.90;;;;;;4910545;29;20072;-83
2024/01/25 00:59:44;;;;;;;35.95;6.90;;;6.80;99.90;;;;;;4893777;29;20059;-82
2024/01/25 01:02:12;;;;;;;29.23;5.70;;;6.80;99.90;;;;;;4915140;29;20055;-82
2024/01/25 01:04:38;;;;;;;;;;;6.90;99.90;;;;;;4907726;29;20380;-82
2024/01/25 01:07:04;;;;;;;33.92;5.90;;;;;;;;;;4916198;29;19934;-82
2024/01/25 01:09:30;;;;;;;35.67;6.72;;;6.60;99.90;;;;;;4896873;29;20040;-82
2024/01/25 01:11:56;;;;;;;36.95;6.65;;;6.50;99.90;;;;;;4902019;29;20059;-82
2024/01/25 01:14:22;;;;;;;29.50;6.75;;;6.50;99.90;;;;;;4897682;29;20131;-82
2024/01/25 01:16:47;;;;;;;32.80;6.07;;;6.40;99.90;;;;;;4919801;29;20064;-83
2024/01/25 01:19:13;;;;;;;35.40;6.25;;;6.30;99.90;;;;;;4919807;29;20050;-83
2024/01/25 01:21:41;;;;;;;33.40;6.53;;;6.20;99.90;;;;;;4922488;29;20048;-82
2024/01/25 01:24:06;;;;;;;32.20;7.05;;;6.20;99.90;;;;;;4924947;29;20103;-82
2024/01/25 01:26:35;;;;;;;28.77;6.50;;;6.10;99.90;;;;;;4921438;29;20509;-82
2024/01/25 01:29:00;;;;;;;35.05;6.25;;;6.00;99.90;;;;;;4889112;29;20087;-81
2024/01/25 01:31:26;;;;;;;37.97;6.97;;;6.00;99.90;;;;;;4902087;29;20053;-81
2024/01/25 01:33:51;;;;;;;37.53;6.55;;;6.00;99.90;;;;;;4917978;29;20107;-81
2024/01/25 01:36:17;;;;;;;31.05;6.32;;;6.00;99.90;;;;;;4921345;29;20048;-81
2024/01/25 01:38:43;;;;;;;38.20;6.78;;;6.00;99.90;;;;;;4886461;29;20060;-81
2024/01/25 01:41:10;;;;;;;33.83;6.07;;;6.10;99.90;;;;;;4920937;29;20122;-81
2024/01/25 01:43:36;;;;;;;35.42;5.88;;;6.00;99.90;;;;;;4905858;29;20466;-82
2024/01/25 01:46:10;;;;;;;37.60;6.13;;;6.10;99.90;;;;;;4919978;29;20044;-81
2024/01/25 01:48:36;;;;;;;35.75;6.70;;;6.10;99.90;;;;;;4921897;29;20064;-81
2024/01/25 01:51:02;;;;;;;37.13;6.45;;;6.00;99.90;;;;;;4902903;29;20052;-81
2024/01/25 01:53:28;;;;;;;30.95;6.05;;;6.00;99.90;;;;;;4902521;29;20048;-81
2024/01/25 01:55:54;;;;;;;33.75;6.50;;;6.00;99.90;;;;;;4920102;29;20063;-81
2024/01/25 01:58:23;;;;;;;39.13;7.32;;;5.90;99.90;;;;;;4919401;29;20064;-81
2024/01/25 02:00:50;;;;;;;32.25;6.05;;;5.90;99.90;;;;;;4919488;29;20059;-81
2024/01/25 02:03:15;;;;;;;33.53;5.43;;;5.90;99.90;;;;;;4919195;29;20079;-81
2024/01/25 02:05:41;;;;;;;34.97;5.88;;;5.80;99.90;;;;;;4900587;29;20036;-81
2024/01/25 02:08:08;;;;;;;34.05;6.50;;;5.80;99.90;;;;;;4900537;29;20044;-81
2024/01/25 02:10:34;;;;;;;35.40;6.57;;;5.80;99.90;;;;;;4914408;29;20075;-81
2024/01/25 02:13:00;;;;;;;36.38;6.55;;;5.80;99.90;;;;;;4913136;29;20044;-81
2024/01/25 02:15:25;;;;;;;35.53;5.70;;;5.80;99.90;;;;;;4912501;29;20352;-82
2024/01/25 02:17:51;;;;;;;33.15;6.32;;;5.80;99.90;;;;;;4917059;29;20527;-82
2024/01/25 02:20:18;;;;;;;42.47;6.70;;;5.70;99.90;;;;;;4917764;29;20083;-82
2024/01/25 02:22:44;;;;;;;34.78;5.80;;;5.80;99.90;;;;;;4897524;29;20051;-82
2024/01/25 02:25:09;;;;;;;36.90;6.40;;;5.70;99.90;;;;;;4898785;29;20540;-82
2024/01/25 02:27:38;;;;;;;33.80;6.25;;;5.70;99.90;;;;;;4883585;29;20136;-82
2024/01/25 02:30:08;;;;;;;32.47;5.90;;;5.70;99.90;;;;;;4918147;29;20873;-83
2024/01/25 02:32:34;;;;;;;38.15;6.78;;;5.70;99.90;;;;;;4901206;29;20035;-83
2024/01/25 02:35:00;;;;;;;40.17;7.13;;;5.70;99.90;;;;;;4919397;29;20051;-82
2024/01/25 02:37:25;;;;;;;40.95;7.07;;;5.70;99.90;;;;;;4916497;29;20067;-81
2024/01/25 02:39:52;;;;;;;38.75;7.15;;;5.70;99.90;;;;;;4900335;29;20052;-82
2024/01/25 02:42:17;;;;;;;44.13;6.68;;;5.70;99.90;;;;;;4917555;29;20059;-81
2024/01/25 02:44:43;;;;;;;40.63;7.32;;;5.70;99.90;;;;;;4904281;29;20071;-81
2024/01/25 02:47:09;;;;;;;41.33;6.65;;;5.70;99.90;;;;;;4921299;29;20055;-81
2024/01/25 02:49:35;;;;;;;38.60;7.00;;;5.60;99.90;;;;;;4906284;29;20495;-81
2024/01/25 02:52:01;;;;;;;43.17;7.03;;;5.60;99.90;;;;;;4922164;29;20133;-81
2024/01/25 02:54:27;;;;;;;40.83;7.65;;;5.60;99.90;;;;;;4917484;29;20064;-81
2024/01/25 02:56:53;;;;;;;40.13;6.88;;;;;;;;;;4921223;29;20040;-81
2024/01/25 02:59:19;;;;;;;43.17;6.30;;;;;;;;;;4918992;29;20067;-81
2024/01/25 03:01:45;;;;;;;36.58;7.28;;;;;;;;;;4923733;29;20131;-81
2024/01/25 03:04:11;;;;;;;42.95;7.15;;;5.50;99.90;;;;;;4919972;29;20124;-81
2024/01/25 03:06:37;;;;;;;44.80;7.78;;;5.40;99.90;;;;;;4917175;29;20044;-81
2024/01/25 03:09:06;;;;;;;35.78;6.80;;;5.40;99.90;;;;;;4901927;29;20044;-81
2024/01/25 03:11:31;;;;;;;41.63;6.47;;;5.40;99.90;;;;;;4902277;29;20040;-81
2024/01/25 03:13:57;;;;;;;42.22;6.25;;;5.40;99.90;;;;;;4914369;29;20621;-81
2024/01/25 03:16:23;;;;;;;36.92;6.25;;;5.40;99.90;;;;;;4918879;29;20040;-82
2024/01/25 03:18:48;;;;;;;44.70;7.03;;;5.30;99.90;;;;;;4922667;29;20182;-82
2024/01/25 03:21:14;;;;;;;39.40;6.90;;;5.30;99.90;;;;;;4918617;29;20154;-82
2024/01/25 03:23:40;;;;;;;39.63;6.32;;;5.30;99.90;;;;;;4915857;29;20056;-82
2024/01/25 03:26:05;;;;;;;43.22;6.55;;;5.30;99.90;;;;;;4891572;29;20052;-80
2024/01/25 03:28:32;;;;;;;38.70;6.50;;;5.30;99.90;;;;;;4927043;29;20506;-81
2024/01/25 03:30:58;;;;;;;42.23;7.03;;;5.20;99.90;;;;;;4923481;29;20056;-81
2024/01/25 03:33:25;;;;;;;34.72;6.88;;;5.20;99.90;;;;;;4919132;29;20051;-81
2024/01/25 03:35:51;;;;;;;39.88;6.60;;;5.20;99.90;;;;;;4904555;29;20056;-81
2024/01/25 03:38:17;;;;;;;47.03;6.78;;;5.10;99.90;;;;;;4918536;29;20053;-81
2024/01/25 03:40:43;;;;;;;38.33;6.78;;;5.20;99.90;;;;;;4917438;29;20096;-81
2024/01/25 03:43:08;;;;;;;38.05;6.40;;;5.20;99.90;;;;;;4903530;29;20044;-81
2024/01/25 03:45:34;;;;;;;38.13;7.03;;;5.20;99.90;;;;;;4908972;29;20063;-81
2024/01/25 03:47:59;;;;;;;37.70;6.70;;;5.20;99.90;;;;;;4928768;29;20055;-81
2024/01/25 03:50:26;;;;;;;42.53;6.90;;;5.10;99.90;;;;;;4904995;29;20140;-81
2024/01/25 03:52:51;;;;;;;42.90;7.18;;;5.10;99.90;;;;;;4921494;29;20498;-81
2024/01/25 03:55:17;;;;;;;33.83;6.22;;;5.10;99.90;;;;;;4906905;29;20040;-81
2024/01/25 03:57:44;;;;;;;43.33;7.05;;;5.00;99.90;;;;;;4928099;29;20035;-81
2024/01/25 04:00:10;;;;;;;36.88;7.05;;;5.00;99.90;;;;;;4899404;29;20572;-82
2024/01/25 04:02:36;;;;;;;37.67;5.97;;;4.90;99.90;;;;;;4899832;29;20070;-81
2024/01/25 04:05:02;;;;;;;38.45;7.25;;;4.90;99.90;;;;;;4897174;29;20318;-81
2024/01/25 04:07:28;;;;;;;40.05;7.07;;;4.90;99.90;;;;;;4913723;29;20391;-81
2024/01/25 04:09:53;;;;;;;40.42;6.57;;;4.80;99.90;;;;;;4911394;29;20078;-81
2024/01/25 04:12:19;;;;;;;43.58;6.07;;;4.80;99.90;;;;;;4879896;29;20083;-82
2024/01/25 04:14:45;;;;;;;40.45;6.45;;;4.70;99.90;;;;;;4909572;29;20047;-82
2024/01/25 04:17:10;;;;;;;37.15;7.20;;;4.70;99.90;;;;;;4911415;29;20049;-81
2024/01/25 04:19:36;;;;;;;42.03;6.68;;;4.70;99.90;;;;;;4897088;29;20051;-81
2024/01/25 04:22:02;;;;;;;36.53;6.90;;;4.70;99.90;;;;;;4913933;29;20146;-81
2024/01/25 04:24:27;;;;;;;37.25;7.22;;;4.60;99.90;;;;;;4895891;29;20706;-81
2024/01/25 04:26:53;;;;;;;43.28;7.07;;;4.60;99.90;;;;;;4915014;29;20535;-81
2024/01/25 04:29:19;;;;;;;34.53;6.13;;;4.60;99.90;;;;;;4897386;29;20095;-81
2024/01/25 04:31:45;;;;;;;33.53;6.07;;;4.60;99.90;;;;;;4912875;29;20427;-81
2024/01/25 04:34:12;;;;;;;30.38;6.05;;;4.50;99.90;;;;;;4911655;29;20120;-82
2024/01/25 04:36:38;;;;;;;39.53;7.27;;;4.50;99.90;;;;;;4917318;29;20036;-81
2024/01/25 04:39:04;;;;;;;39.60;6.82;;;4.40;99.90;;;;;;4917013;29;20066;-81
2024/01/25 04:41:30;;;;;;;45.65;7.43;;;4.40;99.90;;;;;;4913959;29;20136;-82
2024/01/25 04:43:55;;;;;;;44.58;7.40;;;4.40;99.90;;;;;;4915420;29;20732;-81
2024/01/25 04:46:21;;;;;;;46.60;7.43;;;4.40;99.90;;;;;;4915965;29;20035;-80
2024/01/25 04:48:46;;;;;;;43.38;7.07;;;4.40;99.90;;;;;;4918569;29;20099;-80
2024/01/25 04:51:22;;;;;;;39.08;6.93;;;4.40;99.90;;;;;;4903776;29;20052;-81
2024/01/25 04:53:48;;;;;;;49.58;6.40;;;4.40;99.90;;;;;;4913260;29;20150;-80
2024/01/25 04:56:14;;;;;;;44.80;7.63;;;4.40;99.90;;;;;;4912956;29;20461;-81
2024/01/25 04:58:39;;;;;;;44.50;6.68;;;4.40;99.90;;;;;;4915978;29;20367;-79
2024/01/25 05:01:06;;;;;;;37.15;7.00;;;4.40;99.90;;;;;;4915878;29;20051;-79
2024/01/25 05:03:35;;;;;;;45.20;6.70;;;4.40;99.90;;;;;;4923809;29;20126;-82
2024/01/25 05:06:00;;;;;;;;;;;4.30;99.90;;;;;;4921603;29;20044;-82
2024/01/25 05:08:26;;;;;;;42.70;7.35;;;4.40;99.90;;;;;;4904694;29;19931;-82
2024/01/25 05:10:52;;;;;;;35.08;6.20;;;4.40;99.90;;;;;;4923999;29;20127;-82
2024/01/25 05:13:18;;;;;;;40.95;6.90;;;4.40;99.90;;;;;;4918089;29;20183;-82
2024/01/25 05:15:44;;;;;;;36.50;6.28;;;4.40;99.90;;;;;;4912989;29;20059;-82
2024/01/25 05:18:09;;;;;;;40.05;6.75;;;4.40;99.90;;;;;;4922015;29;20040;-82
2024/01/25 05:20:37;;;;;;;43.45;6.88;;;4.40;99.90;;;;;;4929062;29;20048;-82
2024/01/25 05:23:03;;;;;;;;;;;4.30;99.90;;;;;;4914479;29;20398;-82
2024/01/25 05:25:30;;;;;;;42.75;8.02;;;4.30;99.90;;;;;;4917239;29;19930;-80
2024/01/25 05:27:56;;;;;;;40.80;6.47;;;4.30;99.90;;;;;;4916422;29;20052;-80
2024/01/25 05:30:23;;;;;;;41.17;6.53;;;4.30;99.90;;;;;;4915285;29;20036;-80
2024/01/25 05:32:49;;;;;;;40.38;6.97;;;4.20;99.90;;;;;;4914041;29;20166;-80
2024/01/25 05:35:16;;;;;;;35.97;6.55;;;4.20;99.90;;;;;;4899180;29;20044;-80
2024/01/25 05:37:42;;;;;;;40.50;6.97;;;4.10;99.90;;;;;;4918966;29;20072;-81
2024/01/25 05:40:11;;;;;;;38.28;6.65;;;4.10;99.90;;;;;;4916789;29;20060;-81
2024/01/25 05:42:37;;;;;;;42.00;7.32;;;4.10;99.90;;;;;;4916695;29;20039;-82
2024/01/25 05:45:04;;;;;;;48.47;6.93;;;4.10;99.90;;;;;;4916126;29;20056;-81
2024/01/25 05:47:30;;;;;;;41.28;6.55;;;4.00;99.90;;;;;;4897297;29;20044;-83
2024/01/25 05:49:56;;;;;;;41.65;7.25;;;4.00;99.90;;;;;;4913228;29;20157;-82
2024/01/25 05:52:22;;;;;;;43.70;7.15;;;4.00;99.90;;;;;;4914246;29;20048;-82
2024/01/25 05:54:48;;;;;;;41.92;6.80;;;4.00;99.90;;;;;;4901518;29;20048;-83
2024/01/25 05:57:14;;;;;;;36.90;6.53;;;4.00;99.90;;;;;;4897926;29;20514;-81
2024/01/25 05:59:40;;;;;;;39.85;6.05;;;4.00;99.90;;;;;;4915683;29;20067;-81
2024/01/25 06:02:06;;;;;;;48.30;6.78;;;3.90;99.90;;;;;;4917421;29;20048;-81
2024/01/25 06:04:32;;;;;;;40.97;6.95;;;3.90;99.90;;;;;;4905104;29;20040;-82
2024/01/25 06:06:57;;;;;;;45.55;6.93;;;3.80;99.90;;;;;;4890864;29;20048;-81
2024/01/25 06:09:27;;;;;;;51.97;8.35;;;3.80;99.90;;;;;;4887787;29;20175;-81
2024/01/25 06:11:53;;;;;;;39.70;6.53;;;;;;;;;;4922700;29;20052;-82
2024/01/25 06:14:20;;;;;;;42.10;7.10;;;3.70;99.90;;;;;;4904329;29;20079;-81
2024/01/25 06:16:45;;;;;;;38.97;6.85;;;3.60;99.90;;;;;;4901776;29;20083;-81
2024/01/25 06:19:11;;;;;;;31.92;6.63;;;3.70;99.90;;;;;;4918326;29;20095;-81
2024/01/25 06:21:37;;;;;;;43.95;6.90;;;3.60;99.90;;;;;;4919285;29;20045;-81
2024/01/25 06:24:06;;;;;;;40.40;6.68;;;3.60;99.90;;;;;;4922173;29;20044;-82
2024/01/25 06:26:31;;;;;;;39.47;6.90;;;3.60;99.90;;;;;;4916325;29;20059;-82
2024/01/25 06:28:57;;;;;;;38.72;7.07;;;3.50;99.90;;;;;;4919776;29;20434;-82
2024/01/25 06:31:26;;;;;;;49.03;6.82;;;3.50;99.90;;;;;;4884857;29;20116;-83
2024/01/25 06:33:52;;;;;;;40.17;6.55;;;3.80;99.90;;;;;;4888592;29;20048;-82
2024/01/25 06:36:21;;;;;;;36.72;6.72;;;3.60;99.90;;;;;;4900306;29;20044;-83
2024/01/25 06:38:47;;;;;;;38.38;6.60;;;3.60;99.90;;;;;;4902077;29;20123;-83
2024/01/25 06:41:13;;;;;;;44.47;7.03;;;3.50;99.90;;;;;;4920233;29;20086;-81
2024/01/25 06:43:40;;;;;;;37.72;6.50;;;3.50;99.90;;;;;;4897870;29;20455;-81
2024/01/25 06:46:06;;;;;;;43.30;7.05;;;3.70;99.90;;;;;;4917664;29;20071;-81
2024/01/25 06:48:32;;;;;;;37.63;5.85;;;3.40;99.90;;;;;;4916624;29;20050;-81
2024/01/25 06:50:58;;;;;;;47.83;6.93;;;3.40;99.90;;;;;;4914033;29;20506;-81
2024/01/25 06:53:23;;;;;;;47.13;7.32;;;3.30;99.90;;;;;;4917630;29;20364;-81
2024/01/25 06:55:49;;;;;;;43.58;7.45;;;3.30;99.90;;;;;;4898401;29;20087;-80
2024/01/25 06:58:15;;;;;;;39.95;6.65;;;3.40;99.90;;;;;;4916400;29;20182;-80
2024/01/25 07:00:42;;;;;;;42.00;6.32;;;3.40;99.90;;;;;;4907981;29;20052;-81
2024/01/25 07:03:08;;;;;;;39.40;6.57;;;3.50;99.90;;;;;;4918882;29;20048;-81
2024/01/25 07:05:35;;;;;;;45.03;8.10;;;3.40;99.90;;;;;;4917158;29;20043;-81
2024/01/25 07:08:04;;;;;;;47.83;7.90;;;3.50;99.90;;;;;;4913967;29;20104;-81
2024/01/25 07:10:31;;;;;;;46.67;7.38;;;3.40;99.90;;;;;;4914677;29;20076;-82
2024/01/25 07:12:57;;;;;;;40.83;6.65;;;3.50;99.90;;;;;;4915595;29;20043;-82
2024/01/25 07:15:23;;;;;;;50.75;8.68;;;3.60;99.90;;;;;;4912980;29;20413;-82
2024/01/25 07:17:48;;;;;;;44.72;6.97;;;3.60;99.90;;;;;;4915586;29;20032;-82
2024/01/25 07:20:14;;;;;;;42.90;8.20;;;3.60;99.90;;;;;;4915189;29;20509;-83
2024/01/25 07:22:40;;;;;;;37.10;6.05;;;3.60;99.90;;;;;;4910765;29;20043;-83
2024/01/25 07:25:06;;;;;;;42.88;7.43;;;3.70;99.90;;;;;;4914494;29;20107;-82
2024/01/25 07:27:31;;;;;;;43.45;7.50;;;3.70;99.90;;;;;;4911742;29;20052;-82
2024/01/25 07:29:57;;;;;;;50.00;7.78;;;3.70;99.90;;;;;;4910893;29;20067;-82
2024/01/25 07:32:26;;;;;;;43.83;6.90;;;3.60;99.90;;;;;;4915221;29;20071;-83
2024/01/25 07:34:53;;;;;;;45.08;7.03;;;3.70;99.90;;;;;;4898632;29;20044;-82
2024/01/25 07:37:18;;;;;;;47.30;6.95;;;3.50;99.90;;;;;;4910190;29;20052;-83
2024/01/25 07:39:44;;;;;;;45.58;7.65;;;3.60;99.90;;;;;;4912944;29;20071;-82
2024/01/25 07:42:11;;;;;;;42.45;7.70;;;4.10;99.90;;;;;;4915043;29;20043;-82
2024/01/25 07:44:36;;;;;;;45.85;7.15;;;3.70;99.90;;;;;;4914865;29;20088;-82
2024/01/25 07:47:02;;;;;;;51.40;7.47;;;3.70;99.90;;;;;;4909892;29;20048;-82
2024/01/25 07:49:29;;;;;;;47.03;7.68;;;3.80;99.90;;;;;;4900129;29;20104;-83
2024/01/25 07:51:56;;;;;;;45.63;7.85;;;3.80;99.90;;;;;;4916512;29;20039;-82
2024/01/25 07:54:22;;;;;;;42.20;6.97;;;3.80;99.90;;;;;;4892538;29;20333;-83
2024/01/25 07:56:48;;;;;;;47.65;8.15;;;3.90;99.90;;;;;;4898891;29;20490;-83
2024/01/25 07:59:13;;;;;;;42.17;7.10;;;3.90;99.90;;;;;;4918847;29;20107;-83
2024/01/25 08:01:39;;;;;;;48.72;7.68;;;3.90;99.90;;;;;;4913608;29;20531;-83
2024/01/25 08:04:04;;;;;;;42.75;7.68;;;3.70;99.90;;;;;;4896987;29;20071;-83
2024/01/25 08:06:31;;;;;;;46.80;7.43;;;;;;;;;;4917040;29;20076;-84
2024/01/25 08:08:56;;;;;;;43.55;7.90;;;4.10;99.90;;;;;;4914428;29;20024;-84
2024/01/25 08:11:22;;;;;;;37.88;7.05;;;4.20;99.90;;;;;;4912148;29;20047;-84
2024/01/25 08:13:49;;;;;;;49.83;8.50;;;4.30;99.90;;;;;;4912031;29;20062;-84
2024/01/25 08:16:19;;;;;;;40.28;6.65;;;4.30;99.90;;;;;;4914128;29;20067;-84
2024/01/25 08:18:45;;;;;;;47.13;7.40;;;4.30;99.90;;;;;;4900314;29;20458;-84
2024/01/25 08:21:12;;;;;;;51.97;7.53;;;4.40;99.90;;;;;;4906303;29;20052;-84
2024/01/25 08:23:39;;;;;;;55.38;7.50;;;4.40;99.90;;;;;;4898059;29;20047;-84
2024/01/25 08:26:05;;;;;;;36.90;7.20;;;4.50;99.90;;;;;;4894434;29;20117;-83
2024/01/25 08:28:31;;;;;;;36.80;7.43;;;4.50;99.90;;;;;;4894592;29;20036;-83
2024/01/25 08:30:57;;;;;;;43.50;7.20;;;4.60;99.90;;;;;;4915523;29;20043;-83
2024/01/25 08:33:24;;;;;;;48.58;8.27;;;4.50;99.90;;;;;;4913646;29;20035;-84
2024/01/25 08:35:50;;;;;;;46.33;7.80;;;4.50;99.90;;;;;;4916024;29;20119;-84
2024/01/25 08:38:15;;;;;;;37.33;7.95;;;4.50;99.90;;;;;;4912890;29;20513;-79
2024/01/25 08:40:41;;;;;;;45.85;6.28;;;4.60;99.90;;;;;;4911839;29;20481;-80
2024/01/25 08:43:07;;;;;;;44.08;8.40;;;4.60;99.90;;;;;;4910950;29;20044;-79
2024/01/25 08:45:33;;;;;;;39.88;7.43;;;4.60;99.90;;;;;;4910968;29;20044;-78
2024/01/25 08:47:59;;;;;;;43.10;8.48;;;4.80;99.90;;;;;;4891374;29;20052;-80
2024/01/25 08:50:25;;;;;;;42.10;7.43;;;;;;;;;;4915956;29;20056;-79
2024/01/25 08:52:51;;;;;;;36.30;7.70;;;4.80;99.90;;;;;;4905101;29;20052;-79
2024/01/25 08:55:17;;;;;;;38.72;7.95;;;;;;;;;;4912255;29;20195;-80
2024/01/25 08:57:43;;;;;;;36.15;7.43;;;;;;;;;;4915163;29;20108;-82
2024/01/25 09:00:12;;;;;;;41.28;7.60;;;5.00;99.90;;;;;;4917449;29;20115;-79
2024/01/25 09:02:38;;;;;;;45.03;6.93;;;5.10;99.90;;;;;;4917270;29;20430;-80
2024/01/25 09:05:05;;;;;;;41.70;6.68;;;5.00;99.90;;;;;;4910979;29;20036;-79
2024/01/25 09:07:31;;;;;;;42.80;7.55;;;5.20;99.90;;;;;;4911532;29;20076;-78
2024/01/25 09:09:57;;;;;;;49.03;8.02;;;5.10;99.90;;;;;;4913866;29;20083;-78
2024/01/25 09:12:22;;;;;;;46.22;7.75;;;5.10;99.90;;;;;;4907109;29;20075;-78
2024/01/25 09:14:48;;;;;;;47.97;7.18;;;5.10;99.90;;;;;;4909388;29;20040;-78
2024/01/25 09:17:15;;;;;;;48.00;8.02;;;5.20;99.90;;;;;;4910825;29;20051;-78
2024/01/25 09:19:41;;;;;;;40.07;7.77;;;5.30;99.90;;;;;;4912510;29;20531;-78
2024/01/25 09:22:07;;;;;;;41.45;7.90;;;5.30;99.90;;;;;;4907959;29;20052;-78
2024/01/25 09:24:36;;;;;;;39.47;7.70;;;;;;;;;;4912732;29;20068;-78
2024/01/25 09:27:02;;;;;;;47.28;8.15;;;5.50;99.90;;;;;;4915082;29;20135;-79
2024/01/25 09:29:28;;;;;;;39.70;7.28;;;5.40;99.90;;;;;;4912928;29;20052;-78
2024/01/25 09:31:54;;;;;;;44.50;7.07;;;;;;;;;;4886588;29;20067;-79
2024/01/25 09:34:21;;;;;;;43.78;8.13;;;;;;;;;;4914799;29;20126;-78
2024/01/25 09:36:47;;;;;;;36.95;8.05;;;5.90;99.90;;;;;;4921338;29;20075;-78
2024/01/25 09:39:14;;;;;;;48.67;8.20;;;5.90;99.90;;;;;;4917675;29;20494;-78
2024/01/25 09:41:40;;;;;;;43.53;8.15;;;6.00;99.90;;;;;;4883518;29;20047;-76
2024/01/25 09:44:08;;;;;;;38.35;7.38;;;6.10;99.90;;;;;;4900464;29;20055;-76
2024/01/25 09:46:35;;;;;;;44.55;8.15;;;6.10;99.90;;;;;;4915276;29;20160;-77
2024/01/25 09:49:01;;;;;;;43.90;7.60;;;6.20;99.90;;;;;;4919567;29;20039;-78
2024/01/25 09:51:33;;;;;;;40.72;7.07;;;6.30;99.90;;;;;;4918657;29;20075;-77
2024/01/25 09:54:00;;;;;;;42.35;8.70;;;6.30;99.90;;;;;;4921836;29;20051;-78
2024/01/25 09:56:27;;;;;;;41.45;7.25;;;6.30;99.90;;;;;;4916123;29;20130;-77
2024/01/25 09:58:53;;;;;;;41.65;8.60;;;6.30;99.90;;;;;;4915825;29;20119;-77
2024/01/25 10:01:19;;;;;;;43.25;7.78;;;6.40;99.90;;;;;;4882830;29;20107;-77
2024/01/25 10:03:48;;;;;;;46.38;8.63;;;6.20;99.90;;;;;;4913928;29;20055;-77
2024/01/25 10:06:15;;;;;;;41.95;7.68;;;6.80;99.90;;;;;;4901562;29;20127;-78
2024/01/25 10:08:41;;;;;;;42.22;8.20;;;6.60;99.90;;;;;;4917077;29;20230;-78
2024/01/25 10:11:14;;;;;;;41.17;8.20;;;6.50;99.90;;;;;;4917013;29;20040;-78
2024/01/25 10:13:43;;;;;;;52.63;9.07;;;6.60;99.90;;;;;;4912635;29;20150;-77
2024/01/25 10:16:14;;;;;;;29.90;6.97;;;6.60;99.90;;;;;;4883365;29;20052;-77
2024/01/25 10:18:41;;;;;;;41.20;7.88;;;6.80;99.90;;;;;;4915019;29;20052;-77
2024/01/25 10:21:07;;;;;;;39.75;8.68;;;;;;;;;;4915640;29;20051;-78
2024/01/25 10:23:32;;;;;;;51.97;8.57;;;6.80;99.90;;;;;;4918404;29;20399;-77
2024/01/25 10:25:58;;;;;;;34.95;7.57;;;6.90;99.90;;;;;;4922322;29;20044;-78
2024/01/25 10:28:28;;;;;;;41.67;8.27;;;7.00;99.90;;;;;;4916632;29;20044;-77
2024/01/25 10:30:57;;;;;;;47.92;8.32;;;;;;;;;;4899056;29;20048;-77
2024/01/25 10:33:24;;;;;;;37.03;7.22;;;7.30;99.90;;;;;;4915720;29;20051;-77
2024/01/25 10:35:51;;;;;;;39.43;7.87;;;7.30;99.90;;;;;;4916595;29;20039;-78
2024/01/25 10:38:17;;;;;;;39.15;7.60;;;7.30;99.90;;;;;;4915051;29;20048;-78
2024/01/25 10:40:46;;;;;;;41.88;8.20;;;7.30;99.90;;;;;;4907301;29;20120;-77
2024/01/25 10:43:11;;;;;;;34.05;7.43;;;7.30;99.90;;;;;;4915836;29;20043;-77
2024/01/25 10:45:37;;;;;;;35.90;8.35;;;7.30;99.90;;;;;;4915446;29;20122;-77
2024/01/25 10:48:03;;;;;;;35.88;7.18;;;7.40;99.90;;;;;;4896901;29;20050;-77
2024/01/25 10:50:29;;;;;;;33.47;7.85;;;7.40;99.90;;;;;;4898808;29;20047;-77
2024/01/25 10:52:55;;;;;;;41.38;7.57;;;7.50;99.90;;;;;;4914196;29;20044;-79
2024/01/25 10:55:21;;;;;;;39.70;7.07;;;7.50;99.90;;;;;;4915163;29;20044;-77
2024/01/25 10:57:47;;;;;;;41.80;8.45;;;7.60;99.90;;;;;;4913472;29;20051;-78
2024/01/25 11:00:15;;;;;;;39.42;7.38;;;7.60;99.90;;;;;;4906598;29;20433;-77
2024/01/25 11:02:42;;;;;;;42.20;8.05;;;7.70;99.90;;;;;;4914785;29;20381;-78
2024/01/25 11:05:17;;;;;;;42.33;8.88;;;7.70;99.90;;;;;;4914859;29;20040;-77
2024/01/25 11:07:50;;;;;;;36.80;7.70;;;7.70;99.90;;;;;;4915563;29;20043;-77
2024/01/25 11:10:20;;;;;;;35.15;7.97;;;7.80;99.90;;;;;;4912024;29;20058;-78
2024/01/25 11:13:00;;;;;;;36.03;6.78;;;7.90;99.90;;;;;;4919176;29;20395;-77
2024/01/25 11:15:33;;;;;;;36.60;7.95;;;7.80;99.90;;;;;;4915791;29;20044;-77
2024/01/25 11:18:00;;;;;;;38.15;7.43;;;7.90;99.90;;;;;;4910448;29;20131;-77
2024/01/25 11:20:28;;;;;;;45.17;8.55;;;7.90;99.90;;;;;;4898367;29;20127;-77
2024/01/25 11:23:06;;;;;;;37.00;8.00;;;7.80;99.90;;;;;;4915084;29;20088;-77
2024/01/25 11:25:34;;;;;;;40.50;8.98;;;7.90;99.90;;;;;;4916064;29;20130;-77
2024/01/25 11:28:02;;;;;;;38.88;8.45;;;7.90;99.90;;;;;;4896777;29;20175;-77
2024/01/25 11:30:29;;;;;;;40.58;8.23;;;8.00;99.90;;;;;;4914682;29;20052;-77
2024/01/25 11:32:55;;;;;;;40.60;8.88;;;8.10;99.90;;;;;;4915387;29;20048;-77
2024/01/25 11:35:21;;;;;;;35.95;8.15;;;8.10;99.90;;;;;;4896490;29;20052;-77
2024/01/25 11:37:48;;;;;;;34.72;7.45;;;8.20;99.90;;;;;;4916435;29;20538;-77
2024/01/25 11:40:15;;;;;;;35.17;7.50;;;8.30;99.90;;;;;;4883624;29;20052;-77
2024/01/25 11:42:47;;;;;;;28.95;7.05;;;8.50;99.90;;;;;;4908417;29;20617;-78
2024/01/25 11:45:14;;;;;;;33.45;8.45;;;8.50;99.90;;;;;;4910197;29;20052;-78
2024/01/25 11:47:40;;;;;;;35.28;7.65;;;8.60;99.90;;;;;;4914754;29;20051;-77
2024/01/25 11:50:07;;;;;;;34.13;7.65;;;8.70;99.90;;;;;;4916102;29;20062;-77
2024/01/25 11:52:33;;;;;;;49.38;8.77;;;8.70;99.90;;;;;;4910083;29;20482;-78
2024/01/25 11:55:03;;;;;;;37.22;8.18;;;8.80;99.90;;;;;;4919609;29;20154;-79
2024/01/25 11:57:43;;;;;;;39.60;7.85;;;8.90;99.90;;;;;;4898783;29;20123;-81
2024/01/25 12:00:12;;;;;;;36.70;8.00;;;8.90;99.90;;;;;;4918156;29;20048;-79
2024/01/25 12:02:38;;;;;;;35.33;7.70;;;8.90;99.90;;;;;;4916007;29;20479;-80
2024/01/25 12:05:05;;;;;;;36.03;7.45;;;8.90;99.90;;;;;;4915769;29;20051;-78
2024/01/25 12:07:31;;;;;;;33.72;7.78;;;8.90;99.90;;;;;;4912783;29;20138;-78
2024/01/25 12:10:04;;;;;;;33.13;6.68;;;8.90;99.90;;;;;;4920456;29;20059;-78
2024/01/25 12:12:30;;;;;;;33.35;7.20;;;8.90;99.90;;;;;;4904991;29;20047;-78
2024/01/25 12:14:59;;;;;;;37.47;7.57;;;8.90;99.90;;;;;;4905193;29;20432;-78
2024/01/25 12:17:32;;;;;;;35.60;7.57;;;9.00;99.90;;;;;;4912292;29;20051;-78
2024/01/25 12:19:59;;;;;;;30.33;7.18;;;9.10;99.90;;;;;;4901192;29;20087;-78
2024/01/25 12:22:28;;;;;;;29.10;6.45;;;9.10;99.90;;;;;;4916504;29;20050;-78
2024/01/25 12:24:57;;;;;;;39.13;7.85;;;9.10;99.90;;;;;;4898613;29;20463;-78
2024/01/25 12:27:24;;;;;;;36.00;7.22;;;9.10;99.90;;;;;;4914282;29;20048;-77
2024/01/25 12:29:53;;;;;;;40.15;8.20;;;9.00;99.90;;;;;;4898955;29;20055;-77
2024/01/25 12:32:22;;;;;;;32.40;7.22;;;8.90;99.90;;;;;;4898665;29;20450;-77
2024/01/25 12:35:00;;;;;;;31.40;7.75;;;8.90;99.90;;;;;;4916135;29;20048;-77
2024/01/25 12:37:26;;;;;;;;;;;8.90;99.90;;;;;;4909699;29;20048;-78
2024/01/25 12:39:53;;;;;;;33.75;8.45;;;8.90;99.90;;;;;;4896863;29;19923;-78
2024/01/25 12:42:19;;;;;;;42.75;8.40;;;8.90;99.90;;;;;;4898565;29;20348;-77
2024/01/25 12:44:45;;;;;;;32.10;7.50;;;8.80;99.90;;;;;;4918238;29;20055;-77
2024/01/25 12:47:12;;;;;;;34.08;7.97;;;8.80;99.90;;;;;;4915711;29;20052;-78
2024/01/25 12:49:43;;;;;;;34.30;7.37;;;8.80;99.90;;;;;;4915827;29;20075;-77